Time;durP1;ratioP1;P1;durP2;ratioP2;P2;SDS_P1;SDS_P2;PMS_P1;PMS_P2;Temp;Humidity;BMP_temperature;BMP_pressure;BME280_temperature;BME280_humidity;BME280_pressure;Samples;Min_cycle;Max_cycle;Signal;HPM_P1;HPM_P2
2023/12/18 00:01:59;;;;;;;12.60;11.30;;;8.90;1.00;;;;;;5099155;28;20203;-41
2023/12/18 00:04:25;;;;;;;11.67;9.83;;;8.50;99.90;;;;;;5099520;28;20180;-41
2023/12/18 00:06:51;;;;;;;10.90;9.80;;;8.10;1.00;;;;;;5098804;28;20184;-46
2023/12/18 00:09:17;;;;;;;12.10;10.80;;;7.70;99.90;;;;;;5080056;28;20511;-41
2023/12/18 00:11:43;;;;;;;12.57;9.90;;;7.40;1.00;;;;;;5097194;28;20430;-41
2023/12/18 00:14:09;;;;;;;9.57;6.30;;;7.10;1.00;;;;;;5062951;28;20215;-40
2023/12/18 00:16:35;;;;;;;8.20;6.67;;;7.00;99.90;;;;;;5097969;28;20203;-43
2023/12/18 00:19:00;;;;;;;11.10;6.73;;;7.70;1.00;;;;;;5098364;28;20839;-41
2023/12/18 00:21:26;;;;;;;10.50;6.83;;;8.50;1.00;;;;;;5096930;28;20176;-41
2023/12/18 00:23:51;;;;;;;7.27;6.20;;;9.30;1.00;;;;;;5097715;28;20193;-42
2023/12/18 00:26:17;;;;;;;7.70;6.90;;;9.80;1.00;;;;;;5096114;28;20184;-41
2023/12/18 00:28:42;;;;;;;9.33;7.47;;;10.40;1.00;;;;;;5079804;28;20176;-42
2023/12/18 00:31:08;;;;;;;9.97;6.97;;;10.90;1.00;;;;;;5079708;28;20192;-44
2023/12/18 00:33:33;;;;;;;12.47;7.50;;;11.30;99.90;;;;;;5097211;28;20263;-41
2023/12/18 00:35:59;;;;;;;8.63;7.07;;;11.60;99.90;;;;;;5079288;28;20574;-40
2023/12/18 00:38:25;;;;;;;10.20;6.90;;;11.90;1.00;;;;;;5098237;28;20272;-41
2023/12/18 00:40:51;;;;;;;7.67;6.87;;;12.20;1.00;;;;;;5097525;28;20173;-41
2023/12/18 00:43:18;;;;;;;9.57;7.53;;;12.40;99.90;;;;;;5079936;28;20880;-41
2023/12/18 00:45:44;;;;;;;9.73;7.23;;;12.60;1.00;;;;;;5097702;28;20591;-42
2023/12/18 00:48:09;;;;;;;8.73;7.40;;;12.70;99.90;;;;;;5098237;28;20484;-41
2023/12/18 00:50:34;;;;;;;9.80;8.40;;;12.80;99.90;;;;;;5096680;28;20246;-42
2023/12/18 00:53:01;;;;;;;11.00;9.90;;;12.70;1.00;;;;;;5079697;28;20172;-40
2023/12/18 00:55:27;;;;;;;10.07;9.07;;;12.20;1.00;;;;;;5078268;28;20302;-41
2023/12/18 00:57:52;;;;;;;11.10;10.00;;;11.50;1.00;;;;;;5096245;28;20465;-42
2023/12/18 01:00:18;;;;;;;11.97;10.77;;;10.70;99.90;;;;;;5061432;28;20503;-41
2023/12/18 01:02:46;;;;;;;10.20;9.10;;;10.10;99.90;;;;;;5095653;28;20531;-41
2023/12/18 01:05:11;;;;;;;10.47;9.50;;;9.40;99.90;;;;;;5096432;28;20923;-42
2023/12/18 01:07:37;;;;;;;10.67;8.80;;;8.90;99.90;;;;;;5097164;28;20418;-40
2023/12/18 01:10:02;;;;;;;8.70;7.60;;;8.50;99.90;;;;;;5096299;28;20234;-42
2023/12/18 01:12:28;;;;;;;8.90;7.80;;;8.10;99.90;;;;;;5095842;28;20196;-41
2023/12/18 01:14:54;;;;;;;7.87;7.10;;;7.80;1.00;;;;;;5096787;28;20303;-41
2023/12/18 01:17:19;;;;;;;8.00;7.20;;;7.60;1.00;;;;;;5097277;28;20664;-43
2023/12/18 01:19:45;;;;;;;7.00;6.37;;;7.40;1.00;;;;;;5097241;28;20267;-42
2023/12/18 01:22:10;;;;;;;6.70;6.10;;;7.20;1.00;;;;;;5094284;28;20168;-42
2023/12/18 01:24:36;;;;;;;6.63;5.83;;;7.00;1.00;;;;;;5096954;28;20203;-43
2023/12/18 01:27:01;;;;;;;6.17;5.53;;;6.90;91.90;;;;;;5097668;28;20188;-40
2023/12/18 01:29:27;;;;;;;6.17;5.57;;;6.80;99.90;;;;;;5096869;28;20258;-41
2023/12/18 01:31:52;;;;;;;6.50;5.83;;;6.70;99.90;;;;;;5095624;28;20203;-40
2023/12/18 01:34:18;;;;;;;7.37;6.07;;;6.60;99.90;;;;;;5095230;28;20456;-40
2023/12/18 01:36:43;;;;;;;5.83;5.27;;;6.50;1.00;;;;;;5097524;28;20195;-41
2023/12/18 01:39:09;;;;;;;5.80;5.30;;;6.50;1.00;;;;;;5096046;28;20250;-40
2023/12/18 01:41:34;;;;;;;5.97;5.40;;;6.40;1.00;;;;;;5097041;28;20176;-41
2023/12/18 01:44:00;;;;;;;5.90;5.30;;;6.40;1.00;;;;;;5097065;28;20429;-41
2023/12/18 01:46:25;;;;;;;5.70;4.90;;;6.30;1.00;;;;;;5096232;28;20196;-39
2023/12/18 01:48:51;;;;;;;5.77;4.07;;;6.30;1.00;;;;;;5098551;28;20293;-40
2023/12/18 01:51:18;;;;;;;5.17;4.57;;;6.30;1.00;;;;;;5100317;28;20232;-43
2023/12/18 01:53:46;;;;;;;5.10;4.50;;;6.20;1.00;;;;;;5082931;28;20479;-42
2023/12/18 01:56:14;;;;;;;4.90;4.40;;;6.20;1.00;;;;;;5083485;28;20816;-41
2023/12/18 01:58:42;;;;;;;5.40;4.90;;;6.10;1.00;;;;;;5100816;28;20414;-41
2023/12/18 02:01:08;;;;;;;5.03;4.53;;;6.10;1.00;;;;;;5082904;28;20554;-42
2023/12/18 02:03:34;;;;;;;4.57;3.73;;;6.10;1.00;;;;;;5101081;28;20430;-39
2023/12/18 02:06:00;;;;;;;4.70;4.20;;;6.10;1.00;;;;;;5100626;28;20422;-42
2023/12/18 02:08:26;;;;;;;5.00;3.97;;;6.00;2.90;;;;;;5100577;28;20430;-42
2023/12/18 02:10:55;;;;;;;3.80;3.50;;;6.00;1.00;;;;;;5065309;28;20263;-40
2023/12/18 02:13:22;;;;;;;4.33;3.77;;;6.00;1.00;;;;;;5081967;28;20410;-42
2023/12/18 02:15:47;;;;;;;4.20;3.60;;;5.90;1.00;;;;;;5099728;28;20477;-40
2023/12/18 02:18:13;;;;;;;4.10;3.70;;;6.00;1.00;;;;;;5100735;28;20440;-40
2023/12/18 02:20:44;;;;;;;4.70;4.10;;;5.90;1.00;;;;;;5099170;28;20387;-42
2023/12/18 02:23:10;;;;;;;3.97;3.53;;;5.90;1.00;;;;;;5100188;28;20218;-41
2023/12/18 02:25:35;;;;;;;4.67;4.27;;;5.90;1.00;;;;;;5100409;28;20678;-43
2023/12/18 02:28:02;;;;;;;4.50;4.10;;;5.90;1.00;;;;;;5099715;28;20527;-39
2023/12/18 02:30:27;;;;;;;4.40;3.93;;;5.90;1.00;;;;;;5081215;28;20205;-40
2023/12/18 02:32:53;;;;;;;5.03;4.30;;;5.90;1.00;;;;;;5100629;28;20480;-42
2023/12/18 02:35:18;;;;;;;4.33;3.90;;;5.80;1.00;;;;;;5100296;28;20485;-43
2023/12/18 02:37:44;;;;;;;4.83;3.87;;;5.80;1.00;;;;;;5100116;28;20267;-39
2023/12/18 02:40:10;;;;;;;5.10;4.50;;;5.80;99.90;;;;;;5100283;28;20264;-40
2023/12/18 02:42:35;;;;;;;4.90;4.50;;;5.70;99.90;;;;;;5100253;28;20530;-41
2023/12/18 02:45:02;;;;;;;6.23;4.77;;;5.70;99.90;;;;;;5100415;28;20191;-44
2023/12/18 02:47:28;;;;;;;7.13;5.80;;;5.60;99.90;;;;;;5099968;28;20207;-40
2023/12/18 02:49:53;;;;;;;6.87;5.13;;;5.60;99.90;;;;;;5099806;28;20415;-39
2023/12/18 02:52:19;;;;;;;5.63;4.93;;;5.50;99.90;;;;;;5099516;28;20192;-41
2023/12/18 02:54:44;;;;;;;6.80;5.20;;;5.50;99.90;;;;;;5099020;28;20353;-40
2023/12/18 02:57:10;;;;;;;6.50;5.20;;;5.40;99.90;;;;;;5099873;28;20255;-40
2023/12/18 02:59:35;;;;;;;5.90;5.30;;;5.40;99.90;;;;;;5099879;28;20623;-39
2023/12/18 03:02:01;;;;;;;6.10;5.50;;;5.30;99.90;;;;;;5099544;28;20180;-41
2023/12/18 03:05:07;;;;;;;5.83;4.90;;;5.30;99.90;;;;;;5099726;28;20538;-41
2023/12/18 03:07:33;;;;;;;5.90;5.30;;;5.20;99.90;;;;;;5098279;28;20272;-41
2023/12/18 03:09:58;;;;;;;5.50;4.90;;;5.20;99.90;;;;;;5097658;28;20824;-40
2023/12/18 03:12:24;;;;;;;5.40;4.90;;;5.20;99.90;;;;;;5097203;28;20180;-39
2023/12/18 03:14:49;;;;;;;5.50;5.00;;;5.10;99.90;;;;;;5096717;28;20215;-40
2023/12/18 03:17:15;;;;;;;5.73;4.57;;;5.10;99.90;;;;;;5097373;28;20585;-42
2023/12/18 03:19:40;;;;;;;4.90;4.40;;;5.10;99.90;;;;;;5097998;28;20200;-42
2023/12/18 03:22:06;;;;;;;5.23;4.73;;;5.10;1.00;;;;;;5097526;28;20175;-40
2023/12/18 03:24:32;;;;;;;4.30;3.80;;;5.10;1.00;;;;;;5098795;28;20177;-40
2023/12/18 03:26:57;;;;;;;4.23;3.73;;;5.10;1.00;;;;;;5100375;28;20191;-39
2023/12/18 03:29:23;;;;;;;4.33;3.80;;;5.10;1.00;;;;;;5099525;28;20180;-41
2023/12/18 03:31:48;;;;;;;4.00;3.37;;;5.10;1.00;;;;;;5081496;28;20188;-39
2023/12/18 03:34:14;;;;;;;4.43;4.03;;;5.10;1.00;;;;;;5099155;28;20220;-40
2023/12/18 03:36:39;;;;;;;4.50;3.80;;;5.10;1.00;;;;;;5099531;28;20181;-40
2023/12/18 03:39:05;;;;;;;5.30;3.33;;;5.10;1.00;;;;;;5082561;28;20442;-39
2023/12/18 03:41:30;;;;;;;4.00;3.60;;;5.10;1.00;;;;;;5100315;28;20164;-40
2023/12/18 03:43:56;;;;;;;3.53;3.23;;;5.10;1.00;;;;;;5100037;28;20184;-40
2023/12/18 03:46:21;;;;;;;5.53;3.87;;;5.10;1.00;;;;;;5081104;28;20177;-39
2023/12/18 03:48:47;;;;;;;3.17;2.87;;;5.10;1.00;;;;;;5098482;28;20188;-39
2023/12/18 03:51:12;;;;;;;4.00;3.63;;;5.10;99.90;;;;;;5098330;28;20344;-40
2023/12/18 03:53:38;;;;;;;4.13;3.73;;;5.10;99.90;;;;;;5097132;28;20234;-40
2023/12/18 03:56:04;;;;;;;4.33;3.63;;;5.10;99.90;;;;;;5097299;28;20204;-41
2023/12/18 03:58:30;;;;;;;5.73;3.60;;;5.00;99.90;;;;;;5096528;28;20199;-41
2023/12/18 04:00:56;;;;;;;4.67;4.00;;;5.00;99.90;;;;;;5096889;28;20836;-40
2023/12/18 04:03:21;;;;;;;4.17;3.57;;;5.00;99.90;;;;;;5096933;28;20176;-39
2023/12/18 04:05:47;;;;;;;3.80;3.33;;;4.90;99.90;;;;;;5095375;28;20415;-40
2023/12/18 04:08:12;;;;;;;3.50;3.20;;;4.90;99.90;;;;;;5097308;28;20443;-40
2023/12/18 04:10:38;;;;;;;3.90;3.43;;;4.90;99.90;;;;;;5096884;28;20246;-39
2023/12/18 04:13:03;;;;;;;4.37;3.30;;;4.90;99.90;;;;;;5097676;28;20173;-40
2023/12/18 04:15:29;;;;;;;3.60;3.07;;;4.80;99.90;;;;;;5097603;28;20281;-41
2023/12/18 04:17:55;;;;;;;3.63;3.30;;;4.80;99.90;;;;;;5097835;28;20255;-40
2023/12/18 04:20:21;;;;;;;3.50;3.10;;;4.80;99.90;;;;;;5097190;28;20164;-39
2023/12/18 04:22:47;;;;;;;4.30;3.90;;;4.80;99.90;;;;;;5096972;28;20185;-40
2023/12/18 04:25:12;;;;;;;4.33;3.93;;;4.80;99.90;;;;;;5098136;28;20484;-40
2023/12/18 04:27:38;;;;;;;3.80;3.43;;;4.70;99.90;;;;;;5097867;28;20191;-40
2023/12/18 04:30:04;;;;;;;3.93;3.30;;;4.70;99.90;;;;;;5096831;28;20192;-38
2023/12/18 04:32:29;;;;;;;4.00;3.50;;;4.70;99.90;;;;;;5096504;28;20184;-39
2023/12/18 04:34:56;;;;;;;4.67;3.60;;;4.70;99.90;;;;;;5095910;28;20639;-42
2023/12/18 04:37:22;;;;;;;4.83;3.90;;;4.60;99.90;;;;;;5096016;28;20180;-41
2023/12/18 04:39:47;;;;;;;4.47;3.13;;;4.60;99.90;;;;;;5096403;28;20427;-40
2023/12/18 04:42:13;;;;;;;4.10;3.50;;;4.60;99.90;;;;;;5097024;28;20426;-41
2023/12/18 04:44:38;;;;;;;4.07;3.20;;;4.60;1.00;;;;;;5097053;28;20180;-39
2023/12/18 04:47:04;;;;;;;5.50;4.27;;;4.50;1.00;;;;;;5097225;28;20275;-39
2023/12/18 04:49:29;;;;;;;4.10;3.70;;;4.50;1.00;;;;;;5079414;28;20450;-39
2023/12/18 04:51:54;;;;;;;5.50;3.80;;;4.50;1.00;;;;;;5096694;28;20629;-41
2023/12/18 04:54:20;;;;;;;4.90;4.00;;;4.50;1.00;;;;;;5096518;28;20631;-40
2023/12/18 04:56:46;;;;;;;4.67;3.37;;;4.50;1.00;;;;;;5095109;28;20234;-39
2023/12/18 04:59:11;;;;;;;4.40;4.00;;;4.50;1.00;;;;;;5097344;28;20156;-40
2023/12/18 05:01:37;;;;;;;4.10;3.70;;;4.40;1.00;;;;;;5097031;28;20173;-39
2023/12/18 05:04:03;;;;;;;4.30;3.53;;;4.40;1.00;;;;;;5096116;28;20184;-40
2023/12/18 05:06:28;;;;;;;3.63;3.33;;;4.40;1.00;;;;;;5096744;28;20216;-39
2023/12/18 05:08:54;;;;;;;3.73;3.20;;;4.40;1.00;;;;;;5096282;28;20184;-40
2023/12/18 05:11:22;;;;;;;4.70;4.13;;;4.40;1.00;;;;;;5095425;28;20173;-40
2023/12/18 05:13:48;;;;;;;4.13;3.63;;;4.30;1.00;;;;;;5095992;28;20476;-40
2023/12/18 05:16:15;;;;;;;5.53;3.87;;;4.40;1.00;;;;;;5095604;28;20746;-39
2023/12/18 05:18:40;;;;;;;6.00;3.63;;;4.30;1.00;;;;;;5094212;28;20164;-39
2023/12/18 05:21:06;;;;;;;3.90;3.43;;;4.30;1.00;;;;;;5093159;28;20491;-40
2023/12/18 05:23:32;;;;;;;3.97;3.67;;;4.30;1.00;;;;;;5092221;28;20554;-40
2023/12/18 05:25:58;;;;;;;5.27;4.10;;;4.30;1.00;;;;;;5092765;28;20440;-41
2023/12/18 05:28:24;;;;;;;3.90;3.27;;;4.30;1.00;;;;;;5092155;28;20218;-40
2023/12/18 05:30:50;;;;;;;4.87;4.10;;;4.20;1.00;;;;;;5093222;28;20180;-40
2023/12/18 05:33:15;;;;;;;4.13;3.73;;;4.30;1.00;;;;;;5094078;28;20688;-39
2023/12/18 05:35:41;;;;;;;4.50;3.93;;;4.20;1.00;;;;;;5092808;28;20212;-43
2023/12/18 05:38:07;;;;;;;4.50;3.93;;;4.20;1.00;;;;;;5093565;28;20561;-40
2023/12/18 05:40:33;;;;;;;5.00;4.07;;;4.20;1.00;;;;;;5094564;28;20183;-43
2023/12/18 05:42:59;;;;;;;4.17;3.67;;;4.20;1.00;;;;;;5094737;28;20410;-40
2023/12/18 05:45:24;;;;;;;4.50;4.03;;;4.10;1.00;;;;;;5093135;28;20858;-40
2023/12/18 05:47:50;;;;;;;4.43;4.00;;;4.10;1.00;;;;;;5092971;28;20188;-44
2023/12/18 05:50:15;;;;;;;4.70;3.70;;;4.10;1.00;;;;;;5092113;28;20224;-43
2023/12/18 05:52:41;;;;;;;4.37;3.83;;;4.10;1.00;;;;;;5091855;28;20181;-41
2023/12/18 05:55:09;;;;;;;4.97;4.47;;;4.10;1.00;;;;;;5091294;28;20203;-43
2023/12/18 05:57:35;;;;;;;4.93;3.43;;;4.10;1.00;;;;;;5092632;28;20172;-41
2023/12/18 06:00:01;;;;;;;4.40;4.00;;;4.10;1.00;;;;;;5091053;28;20759;-40
2023/12/18 06:02:26;;;;;;;4.83;3.67;;;4.00;1.00;;;;;;5093213;28;20490;-41
2023/12/18 06:04:52;;;;;;;3.83;3.43;;;4.00;1.00;;;;;;5093576;28;20207;-41
2023/12/18 06:07:17;;;;;;;5.20;4.40;;;4.00;1.00;;;;;;5091674;28;20455;-41
2023/12/18 06:09:43;;;;;;;4.60;4.10;;;4.00;1.00;;;;;;5073101;28;20543;-41
2023/12/18 06:12:08;;;;;;;4.17;3.87;;;4.00;1.00;;;;;;5090564;28;20639;-42
2023/12/18 06:14:34;;;;;;;4.47;4.07;;;4.00;1.00;;;;;;5071878;28;20261;-42
2023/12/18 06:16:59;;;;;;;5.00;4.20;;;4.00;1.00;;;;;;5087186;28;20257;-40
2023/12/18 06:19:26;;;;;;;4.80;3.80;;;4.00;1.00;;;;;;5066114;28;20480;-41
2023/12/18 06:21:52;;;;;;;5.00;3.80;;;4.00;1.00;;;;;;5069497;28;20489;-41
2023/12/18 06:24:17;;;;;;;6.43;5.40;;;4.00;1.00;;;;;;5088721;28;20206;-40
2023/12/18 06:26:43;;;;;;;9.30;6.63;;;3.90;1.00;;;;;;5091039;28;20193;-40
2023/12/18 06:29:09;;;;;;;6.57;4.80;;;4.00;1.00;;;;;;5091703;28;20195;-43
2023/12/18 06:31:34;;;;;;;3.73;3.43;;;4.10;1.00;;;;;;5053521;28;20192;-42
2023/12/18 06:34:00;;;;;;;7.10;5.50;;;5.10;1.00;;;;;;5091454;28;20188;-41
2023/12/18 06:36:25;;;;;;;6.77;5.90;;;5.40;1.00;;;;;;5094365;28;20200;-40
2023/12/18 06:38:51;;;;;;;6.27;5.07;;;5.40;1.00;;;;;;5077810;28;20176;-42
2023/12/18 06:41:17;;;;;;;5.40;4.90;;;5.20;99.90;;;;;;5077255;28;20186;-41
2023/12/18 06:43:42;;;;;;;6.13;5.53;;;5.10;1.00;;;;;;5077066;28;20181;-41
2023/12/18 06:46:09;;;;;;;6.97;5.40;;;4.90;99.90;;;;;;5089707;28;20180;-41
2023/12/18 06:48:34;;;;;;;7.83;5.53;;;4.80;99.90;;;;;;5079979;28;20176;-40
2023/12/18 06:51:00;;;;;;;8.20;5.70;;;4.60;1.00;;;;;;5061872;28;20502;-40
2023/12/18 06:53:26;;;;;;;6.47;5.77;;;4.50;99.90;;;;;;5089245;28;20200;-41
2023/12/18 06:55:51;;;;;;;5.77;5.23;;;4.40;1.00;;;;;;5097003;28;20299;-39
2023/12/18 06:58:17;;;;;;;5.50;5.00;;;4.30;99.90;;;;;;5082796;28;20579;-40
2023/12/18 07:00:43;;;;;;;6.70;5.50;;;4.20;1.00;;;;;;5098189;28;20173;-40
2023/12/18 07:03:09;;;;;;;7.10;6.13;;;4.20;99.90;;;;;;5088114;28;20275;-40
2023/12/18 07:05:34;;;;;;;7.53;6.00;;;4.10;99.90;;;;;;5073067;28;20767;-40
2023/12/18 07:08:00;;;;;;;6.83;6.10;;;4.10;1.00;;;;;;5097600;28;20188;-42
2023/12/18 07:10:25;;;;;;;7.73;6.33;;;4.00;1.00;;;;;;5076315;28;20193;-42
2023/12/18 07:12:51;;;;;;;7.70;6.37;;;4.00;1.00;;;;;;5076558;28;20459;-40
2023/12/18 07:15:17;;;;;;;6.40;5.80;;;4.00;99.90;;;;;;5075824;28;20217;-42
2023/12/18 07:17:42;;;;;;;8.37;7.60;;;4.00;99.90;;;;;;5082805;28;20278;-40
2023/12/18 07:20:08;;;;;;;9.60;8.23;;;4.00;99.90;;;;;;5097810;28;20189;-40
2023/12/18 07:22:34;;;;;;;8.53;7.77;;;4.00;99.90;;;;;;5065089;28;20368;-39
2023/12/18 07:25:00;;;;;;;9.07;8.20;;;4.00;99.90;;;;;;5073090;28;20490;-42
2023/12/18 07:27:25;;;;;;;9.53;7.80;;;3.90;99.90;;;;;;5075464;28;20828;-43
2023/12/18 07:29:51;;;;;;;8.83;8.00;;;3.90;90.30;;;;;;5095616;28;20644;-40
2023/12/18 07:32:16;;;;;;;8.10;7.30;;;3.90;62.00;;;;;;5096169;28;20541;-42
2023/12/18 07:34:42;;;;;;;8.57;7.77;;;4.00;14.40;;;;;;5095368;28;20471;-40
2023/12/18 07:37:08;;;;;;;8.77;7.67;;;4.00;1.00;;;;;;5094568;28;20202;-40
2023/12/18 07:39:33;;;;;;;8.13;7.43;;;4.00;1.00;;;;;;5094588;28;20285;-43
2023/12/18 07:41:59;;;;;;;8.47;7.67;;;4.00;1.00;;;;;;5095071;28;20184;-40
2023/12/18 07:44:25;;;;;;;9.83;8.80;;;4.00;1.00;;;;;;5095279;28;20184;-41
2023/12/18 07:46:52;;;;;;;10.23;9.20;;;4.10;1.00;;;;;;5076679;28;20714;-40
2023/12/18 07:49:17;;;;;;;8.30;7.60;;;4.30;1.00;;;;;;5094881;28;20271;-41
2023/12/18 07:51:43;;;;;;;9.80;7.63;;;4.50;99.90;;;;;;5095185;28;20576;-41
2023/12/18 07:54:08;;;;;;;8.57;7.60;;;4.70;99.90;;;;;;5094405;28;20547;-40
2023/12/18 07:56:34;;;;;;;9.87;8.70;;;4.90;1.00;;;;;;5093242;28;20196;-40
2023/12/18 07:59:00;;;;;;;7.93;7.13;;;5.30;1.00;;;;;;5094992;28;20485;-42
2023/12/18 08:01:25;;;;;;;10.73;8.80;;;5.60;99.90;;;;;;5093849;28;20551;-40
2023/12/18 08:03:51;;;;;;;8.70;7.80;;;6.00;99.90;;;;;;5095208;28;20173;-41
2023/12/18 08:06:17;;;;;;;10.13;9.10;;;6.50;1.00;;;;;;5093507;28;20172;-42
2023/12/18 08:08:43;;;;;;;9.63;8.10;;;6.90;1.00;;;;;;5074915;28;20529;-40
2023/12/18 08:11:09;;;;;;;8.33;7.50;;;7.30;1.00;;;;;;5093960;28;20545;-41
2023/12/18 08:13:38;;;;;;;8.60;7.80;;;7.70;99.90;;;;;;5095328;28;20191;-41
2023/12/18 08:16:05;;;;;;;7.87;7.07;;;8.20;99.90;;;;;;5095382;28;20528;-41
2023/12/18 08:18:31;;;;;;;7.90;7.10;;;8.60;99.90;;;;;;5095676;28;20414;-41
2023/12/18 08:20:56;;;;;;;8.30;7.40;;;9.10;91.90;;;;;;5093590;28;20670;-41
2023/12/18 08:23:22;;;;;;;7.63;6.83;;;9.40;9.10;;;;;;5096511;28;20185;-43
2023/12/18 08:25:47;;;;;;;7.80;7.00;;;9.80;1.00;;;;;;5075763;28;20264;-43
2023/12/18 08:28:14;;;;;;;8.63;7.73;;;10.20;1.00;;;;;;5094940;28;20189;-43
2023/12/18 08:30:39;;;;;;;8.73;7.83;;;10.60;1.00;;;;;;5094786;28;20386;-40
2023/12/18 08:33:05;;;;;;;8.30;7.50;;;11.00;1.00;;;;;;5093968;28;20430;-41
2023/12/18 08:35:31;;;;;;;7.90;7.10;;;11.40;1.00;;;;;;5097308;28;20376;-41
2023/12/18 08:37:56;;;;;;;8.30;7.50;;;11.80;1.00;;;;;;5061470;28;20575;-41
2023/12/18 08:40:23;;;;;;;7.43;6.73;;;12.20;1.00;;;;;;5095705;28;20422;-43
2023/12/18 08:42:49;;;;;;;8.23;7.43;;;12.60;1.00;;;;;;5095485;28;20451;-40
2023/12/18 08:45:14;;;;;;;7.53;6.83;;;13.00;1.00;;;;;;5093920;28;20406;-41
2023/12/18 08:47:40;;;;;;;7.03;6.43;;;13.40;1.00;;;;;;5093009;28;20270;-41
2023/12/18 08:50:06;;;;;;;9.50;7.00;;;13.90;1.00;;;;;;5093605;28;20326;-41
2023/12/18 08:52:31;;;;;;;7.63;6.40;;;14.30;1.00;;;;;;5094410;28;20283;-42
2023/12/18 08:54:57;;;;;;;4.40;2.43;;;14.70;1.00;;;;;;5096524;28;20218;-45
2023/12/18 08:57:22;;;;;;;6.10;3.00;;;15.30;99.90;;;;;;5095388;28;20558;-46
2023/12/18 08:59:50;;;;;;;6.10;2.83;;;16.50;1.00;;;;;;5095692;28;20176;-44
2023/12/18 09:02:15;;;;;;;8.60;3.83;;;17.90;99.90;;;;;;5094974;28;20183;-44
2023/12/18 09:04:41;;;;;;;4.93;2.97;;;19.30;1.00;;;;;;5095913;28;20445;-45
2023/12/18 09:07:06;;;;;;;3.70;3.27;;;20.60;99.90;;;;;;5094696;28;20238;-49
2023/12/18 09:09:32;;;;;;;4.50;3.40;;;21.70;1.00;;;;;;5077646;28;20172;-43
2023/12/18 09:11:57;;;;;;;4.77;3.83;;;22.60;1.00;;;;;;5077310;28;20499;-42
2023/12/18 09:14:23;;;;;;;8.70;4.20;;;23.30;1.00;;;;;;5095689;28;20243;-41
2023/12/18 09:16:49;;;;;;;4.40;4.00;;;23.90;1.00;;;;;;5093260;28;20600;-44
2023/12/18 09:19:14;;;;;;;8.30;4.20;;;24.30;1.00;;;;;;5094856;28;20556;-41
2023/12/18 09:21:40;;;;;;;5.80;4.50;;;24.80;1.00;;;;;;5096612;28;20403;-42
2023/12/18 09:24:06;;;;;;;6.10;4.43;;;25.20;1.00;;;;;;5096621;28;20192;-41
2023/12/18 09:26:31;;;;;;;4.73;4.20;;;25.70;1.00;;;;;;5095410;28;20215;-39
2023/12/18 09:28:57;;;;;;;5.53;5.03;;;26.10;1.00;;;;;;5096018;28;20249;-43
2023/12/18 09:31:23;;;;;;;4.90;4.50;;;26.60;1.00;;;;;;5097567;28;20267;-42
2023/12/18 09:33:48;;;;;;;4.60;4.10;;;27.10;1.00;;;;;;5094982;28;20585;-40
2023/12/18 09:36:14;;;;;;;4.40;4.00;;;27.50;1.00;;;;;;5095170;28;20470;-42
2023/12/18 09:38:40;;;;;;;7.37;5.20;;;27.90;1.00;;;;;;5096585;28;20454;-39
2023/12/18 09:41:05;;;;;;;5.30;4.80;;;28.30;1.00;;;;;;5094486;28;20184;-46
2023/12/18 09:43:31;;;;;;;5.63;5.17;;;28.80;1.00;;;;;;5095441;28;20180;-40
2023/12/18 09:45:57;;;;;;;5.03;4.60;;;29.20;1.00;;;;;;5094588;28;20172;-42
2023/12/18 09:48:23;;;;;;;5.20;4.80;;;29.70;1.00;;;;;;5095779;28;20164;-41
2023/12/18 09:50:49;;;;;;;4.70;4.30;;;30.20;1.00;;;;;;5062244;28;20902;-39
2023/12/18 09:53:20;;;;;;;5.33;4.83;;;30.60;1.00;;;;;;5095963;28;20215;-42
2023/12/18 09:55:48;;;;;;;4.37;3.97;;;31.10;1.00;;;;;;5096434;28;20207;-40
2023/12/18 09:58:14;;;;;;;5.10;4.60;;;31.30;1.00;;;;;;5096546;28;20401;-41
2023/12/18 10:00:40;;;;;;;5.27;4.77;;;31.50;1.00;;;;;;5076295;28;20689;-42
2023/12/18 10:03:06;;;;;;;4.33;4.03;;;32.10;1.00;;;;;;5095408;28;20746;-40
2023/12/18 10:05:31;;;;;;;4.30;4.00;;;32.10;1.00;;;;;;5096291;28;20188;-40
2023/12/18 10:08:01;;;;;;;5.97;4.77;;;32.70;1.00;;;;;;5095873;28;20571;-41
2023/12/18 10:10:26;;;;;;;5.37;4.87;;;32.90;1.00;;;;;;5097364;28;20181;-43
2023/12/18 10:12:52;;;;;;;5.60;5.10;;;33.00;1.00;;;;;;5098884;28;20423;-43
2023/12/18 10:15:18;;;;;;;6.50;5.90;;;33.20;1.00;;;;;;5099377;28;20212;-41
2023/12/18 10:17:44;;;;;;;7.30;5.50;;;33.60;1.00;;;;;;5095404;28;20460;-42
2023/12/18 10:20:11;;;;;;;4.47;4.17;;;33.90;1.00;;;;;;5097977;28;20314;-40
2023/12/18 10:22:40;;;;;;;5.20;4.80;;;34.10;1.00;;;;;;5099247;28;20430;-41
2023/12/18 10:25:06;;;;;;;5.73;5.30;;;34.40;1.00;;;;;;5098706;28;20735;-42
2023/12/18 10:27:32;;;;;;;4.67;4.27;;;34.20;1.00;;;;;;5098609;28;20417;-41
2023/12/18 10:29:58;;;;;;;5.07;4.67;;;34.80;1.00;;;;;;5080310;28;20180;-39
2023/12/18 10:32:26;;;;;;;4.73;4.37;;;34.70;1.00;;;;;;5095471;28;20426;-42
2023/12/18 10:34:52;;;;;;;4.63;4.23;;;34.60;1.00;;;;;;5097754;28;20820;-43
2023/12/18 10:37:19;;;;;;;4.30;4.00;;;34.60;1.00;;;;;;5096907;28;20504;-39
2023/12/18 10:39:49;;;;;;;4.03;3.73;;;34.40;1.00;;;;;;5079332;28;20165;-40
2023/12/18 10:42:24;;;;;;;4.37;4.07;;;34.40;1.00;;;;;;5080716;28;20656;-41
2023/12/18 10:44:51;;;;;;;4.80;4.40;;;34.50;1.00;;;;;;5080162;28;20421;-42
2023/12/18 10:47:18;;;;;;;4.40;4.10;;;34.30;1.00;;;;;;5097469;28;20444;-41
2023/12/18 10:49:45;;;;;;;5.10;4.70;;;33.90;1.00;;;;;;5097947;28;20434;-41
2023/12/18 10:52:11;;;;;;;6.00;5.53;;;33.70;1.00;;;;;;5097601;28;20474;-43
2023/12/18 10:54:37;;;;;;;4.30;4.00;;;33.80;1.00;;;;;;5098753;28;20454;-44
2023/12/18 10:57:03;;;;;;;4.63;4.23;;;33.70;1.00;;;;;;5077894;28;20483;-40
2023/12/18 10:59:30;;;;;;;3.80;3.50;;;33.70;1.00;;;;;;5064473;28;20214;-42
2023/12/18 11:01:56;;;;;;;4.57;4.27;;;33.90;1.00;;;;;;5078787;28;20508;-40
2023/12/18 11:04:23;;;;;;;4.87;4.50;;;34.20;1.00;;;;;;5077972;28;20454;-44
2023/12/18 11:06:48;;;;;;;4.47;4.17;;;34.40;1.00;;;;;;5077594;28;20466;-43
2023/12/18 11:09:14;;;;;;;4.47;4.13;;;34.60;1.00;;;;;;5078866;28;20800;-42
2023/12/18 11:11:40;;;;;;;4.10;3.80;;;35.30;1.00;;;;;;5097203;28;20188;-42
2023/12/18 11:14:34;;;;;;;4.00;3.60;;;35.80;1.00;;;;;;5097414;28;20593;-40
2023/12/18 11:17:08;;;;;;;5.10;3.77;;;36.40;1.00;;;;;;5081304;28;20430;-40
2023/12/18 11:19:50;;;;;;;11.60;4.47;;;36.40;1.00;;;;;;5099516;28;20430;-44
2023/12/18 11:22:16;;;;;;;16.43;4.80;;;36.00;1.00;;;;;;5080339;28;20487;-42
2023/12/18 11:24:44;;;;;;;12.77;3.43;;;35.40;1.00;;;;;;5097118;28;20400;-41
2023/12/18 11:27:11;;;;;;;14.03;3.93;;;34.80;1.00;;;;;;5096845;28;20824;-47
2023/12/18 11:29:48;;;;;;;5.77;3.00;;;34.40;1.00;;;;;;5098272;28;20457;-41
2023/12/18 11:32:42;;;;;;;9.10;3.17;;;34.00;1.00;;;;;;5095697;28;20434;-42
2023/12/18 11:35:11;;;;;;;11.03;3.87;;;33.60;1.00;;;;;;5095477;28;20448;-44
2023/12/18 11:37:53;;;;;;;10.63;3.00;;;33.50;1.00;;;;;;5095178;28;20451;-43
2023/12/18 11:40:39;;;;;;;12.17;3.67;;;33.50;1.00;;;;;;5077502;28;20430;-43
2023/12/18 11:43:12;;;;;;;10.33;3.00;;;33.40;1.00;;;;;;5096102;28;20698;-40
2023/12/18 11:45:42;;;;;;;9.13;3.30;;;33.50;1.00;;;;;;5095629;28;20472;-44
2023/12/18 11:48:13;;;;;;;10.93;3.57;;;33.50;1.00;;;;;;5096160;28;20401;-44
2023/12/18 11:50:38;;;;;;;12.30;3.47;;;33.40;1.00;;;;;;5096457;28;20489;-43
2023/12/18 11:53:30;;;;;;;17.63;3.00;;;33.40;1.00;;;;;;5061450;28;20420;-43
2023/12/18 11:55:56;;;;;;;7.70;3.57;;;33.50;1.00;;;;;;5092854;28;20239;-45
2023/12/18 11:58:25;;;;;;;8.57;3.33;;;33.70;1.00;;;;;;5079546;28;20434;-45
2023/12/18 12:00:51;;;;;;;7.87;3.07;;;33.70;1.00;;;;;;5077273;28;20164;-42
2023/12/18 12:03:19;;;;;;;8.07;3.47;;;33.70;1.00;;;;;;5096656;28;20411;-42
2023/12/18 12:05:48;;;;;;;9.80;3.10;;;33.90;1.00;;;;;;5078985;28;20427;-49
2023/12/18 12:08:15;;;;;;;4.13;2.80;;;34.10;1.00;;;;;;5096167;28;20818;-44
2023/12/18 12:10:48;;;;;;;6.97;3.03;;;34.10;1.00;;;;;;5094481;28;20487;-45
2023/12/18 12:13:21;;;;;;;4.23;3.07;;;34.20;1.00;;;;;;5097372;28;21120;-44
2023/12/18 12:15:55;;;;;;;4.87;3.27;;;34.40;1.00;;;;;;5078127;28;20487;-44
2023/12/18 12:18:21;;;;;;;7.87;3.00;;;34.50;1.00;;;;;;5075035;28;20405;-42
2023/12/18 12:20:47;;;;;;;9.60;3.20;;;34.70;1.00;;;;;;5094529;28;20422;-41
2023/12/18 12:23:13;;;;;;;5.13;2.80;;;34.70;1.00;;;;;;5094766;28;20805;-43
2023/12/18 12:25:39;;;;;;;6.03;3.07;;;34.80;1.00;;;;;;5093900;28;20226;-44
2023/12/18 12:28:06;;;;;;;3.87;2.60;;;34.90;1.00;;;;;;5094901;28;20774;-42
2023/12/18 12:30:32;;;;;;;5.30;2.50;;;35.00;1.00;;;;;;5092916;28;20415;-44
2023/12/18 12:32:57;;;;;;;4.37;3.10;;;35.10;1.00;;;;;;5075318;28;20708;-44
2023/12/18 12:35:25;;;;;;;3.27;2.37;;;35.00;1.00;;;;;;5093235;28;20474;-44
2023/12/18 12:37:50;;;;;;;4.40;2.63;;;35.10;1.00;;;;;;5092778;28;20234;-45
2023/12/18 12:40:16;;;;;;;2.83;2.57;;;35.10;1.00;;;;;;5094120;28;20751;-45
2023/12/18 12:42:43;;;;;;;4.30;2.90;;;35.10;1.00;;;;;;5093762;28;20180;-42
2023/12/18 12:45:09;;;;;;;3.10;2.80;;;35.10;1.00;;;;;;5094074;28;20474;-45
2023/12/18 12:47:35;;;;;;;3.83;2.60;;;35.10;1.00;;;;;;5094263;28;20426;-43
2023/12/18 12:50:04;;;;;;;5.83;3.53;;;35.10;1.00;;;;;;5094508;28;20784;-43
2023/12/18 12:52:31;;;;;;;3.90;2.33;;;35.20;1.00;;;;;;5095364;28;20188;-44
2023/12/18 12:54:56;;;;;;;4.00;3.00;;;35.30;1.00;;;;;;5092911;28;20462;-44
2023/12/18 12:57:22;;;;;;;4.07;2.37;;;35.30;1.00;;;;;;5091658;28;20911;-44